Temp: 16.1°C   Baro: 1011.9mb
  Wind: 16.1mph   Dir: WNW (293°)
  Rain: 0.0mm (0.0mm/hr)
  Solar: 290W/m2  Hum: 80%
 
Bath Spa Weather Historical Data
Daily Summary for March 15, 2019 Units:  Both    English   Metric
Next Day »
Daily Weekly Monthly Yearly Custom
  High: Low: Average:
Temperature: 53.2 °F /  11.8 °C 48.2 °F /  9.0 °C 50.5 °F /  10.3 °C
Dew Point: 50.5 °F /  10.3 °C 46.8 °F /  8.2 °C 48.6 °F /  9.2 °C
Humidity: 96% 89% 93%
Wind Speed: 37mph /  59.5km/h - 12.8mph /  20.6km/h
Wind Gust: 38mph /  61.1km/h - -
Wind direction- - WNW
Pressure: 29.8 in /  1010.7 hPa 29.7 in /  1006.3 hPa -
Precipitation: 0.08 in /  2.0 mm    
Historical Graphs
 
 
Tabular Data for March 15, 2019
Time Temperature Dew Point Pressure Wind direction Wind Speed Wind Gust Humidity Rainfall Rate (Hourly) solar
00:04 50.7 °F /  10.4 °C 49.1 °F /  9.5 °C 29.8in /  1007.7hPa NW 15mph /  24.1km/h 21mph /  33.8km/h 94% 0in /  0.0mm 0.00 W/m2
00:09 50.7 °F /  10.4 °C 49.1 °F /  9.5 °C 29.7in /  1007.3hPa WNW 15mph /  24.1km/h 21mph /  33.8km/h 94% 0in /  0.0mm 0.00 W/m2
00:14 50.7 °F /  10.4 °C 49.1 °F /  9.5 °C 29.8in /  1007.7hPa SW 27mph /  43.4km/h 27mph /  43.4km/h 94% 0in /  0.0mm 0.00 W/m2
00:19 50.7 °F /  10.4 °C 49.1 °F /  9.5 °C 29.7in /  1007.3hPa West 12.1mph /  19.5km/h 22mph /  35.4km/h 94% 0in /  0.0mm 0.00 W/m2
00:24 50.7 °F /  10.4 °C 49.1 °F /  9.5 °C 29.7in /  1007.3hPa West 16.1mph /  25.9km/h 30mph /  48.3km/h 94% 0in /  0.0mm 0.00 W/m2
00:29 50.7 °F /  10.4 °C 49.1 °F /  9.5 °C 29.8in /  1007.7hPa NW 12.1mph /  19.5km/h 25mph /  40.2km/h 94% 0in /  0.0mm 0.00 W/m2
00:34 50.7 °F /  10.4 °C 49.1 °F /  9.5 °C 29.7in /  1007.3hPa West 8.1mph /  13.0km/h 29mph /  46.7km/h 94% 0in /  0.0mm 0.00 W/m2
00:39 50.7 °F /  10.4 °C 49.1 °F /  9.5 °C 29.7in /  1007.3hPa West 12.1mph /  19.5km/h 24mph /  38.6km/h 94% 0in /  0.0mm 0.00 W/m2
00:44 50.7 °F /  10.4 °C 49.1 °F /  9.5 °C 29.7in /  1007.3hPa West 12.1mph /  19.5km/h 23mph /  37.0km/h 94% 0in /  0.0mm 0.00 W/m2
00:49 50.7 °F /  10.4 °C 49.1 °F /  9.5 °C 29.7in /  1007.3hPa West 10.1mph /  16.3km/h 26mph /  41.8km/h 94% 0in /  0.0mm 0.00 W/m2
00:54 50.7 °F /  10.4 °C 49.1 °F /  9.5 °C 29.7in /  1007.3hPa NNW 10.1mph /  16.3km/h 26mph /  41.8km/h 94% 0in /  0.0mm 0.00 W/m2
00:59 50.7 °F /  10.4 °C 49.1 °F /  9.5 °C 29.7in /  1007.3hPa West 13mph /  20.9km/h 30mph /  48.3km/h 94% 0in /  0.0mm 0.00 W/m2
01:04 50.5 °F /  10.3 °C 48.6 °F /  9.2 °C 29.7in /  1007.0hPa NNW 10.1mph /  16.3km/h 19mph /  30.6km/h 93% 0in /  0.0mm 0.00 W/m2
01:09 50.5 °F /  10.3 °C 48.6 °F /  9.2 °C 29.7in /  1007.0hPa West 30mph /  48.3km/h 30mph /  48.3km/h 93% 0in /  0.0mm 0.00 W/m2
01:14 50.5 °F /  10.3 °C 48.9 °F /  9.4 °C 29.7in /  1007.0hPa WNW 32mph /  51.5km/h 32mph /  51.5km/h 94% 0in /  0.0mm 0.00 W/m2
01:19 50.5 °F /  10.3 °C 48.9 °F /  9.4 °C 29.7in /  1007.0hPa NNW 21mph /  33.8km/h 21mph /  33.8km/h 94% 0in /  0.0mm 0.00 W/m2
01:24 50.5 °F /  10.3 °C 48.9 °F /  9.4 °C 29.7in /  1007.0hPa WNW 23.9mph /  38.5km/h 26mph /  41.8km/h 94% 0in /  0.0mm 0.00 W/m2
01:29 50.5 °F /  10.3 °C 48.9 °F /  9.4 °C 29.7in /  1007.0hPa WNW 28mph /  45.1km/h 28mph /  45.1km/h 94% 0in /  0.0mm 0.00 W/m2
01:34 50.5 °F /  10.3 °C 48.9 °F /  9.4 °C 29.7in /  1007.0hPa WNW 4.9mph /  7.9km/h 30mph /  48.3km/h 94% 0in /  0.0mm 0.00 W/m2
01:39 50.5 °F /  10.3 °C 48.9 °F /  9.4 °C 29.7in /  1006.7hPa West 21.9mph /  35.2km/h 32mph /  51.5km/h 94% 0in /  0.0mm 0.00 W/m2
01:44 50.5 °F /  10.3 °C 48.9 °F /  9.4 °C 29.7in /  1007.0hPa WNW 19mph /  30.6km/h 23mph /  37.0km/h 94% 0in /  0.0mm 0.00 W/m2
01:49 50.7 °F /  10.4 °C 49.1 °F /  9.5 °C 29.7in /  1006.7hPa WNW 6.9mph /  11.1km/h 33mph /  53.1km/h 94% 0in /  0.0mm 0.00 W/m2
01:54 50.7 °F /  10.4 °C 49.1 °F /  9.5 °C 29.7in /  1006.7hPa NW 15mph /  24.1km/h 31mph /  49.9km/h 94% 0in /  0.0mm 0.00 W/m2
01:59 50.7 °F /  10.4 °C 49.1 °F /  9.5 °C 29.7in /  1006.7hPa WNW 12.1mph /  19.5km/h 25mph /  40.2km/h 94% 0in /  0.0mm 0.00 W/m2
02:04 50.7 °F /  10.4 °C 49.1 °F /  9.5 °C 29.7in /  1006.7hPa West 19.9mph /  32.0km/h 20mph /  32.2km/h 94% 0in /  0.0mm 0.00 W/m2
02:09 50.9 °F /  10.5 °C 48.9 °F /  9.4 °C 29.7in /  1006.7hPa West 11mph /  17.7km/h 29mph /  46.7km/h 93% 0in /  0.0mm 0.00 W/m2
02:14 50.9 °F /  10.5 °C 48.9 °F /  9.4 °C 29.7in /  1006.7hPa NW 19mph /  30.6km/h 34mph /  54.7km/h 93% 0in /  0.0mm 0.00 W/m2
02:19 50.9 °F /  10.5 °C 48.9 °F /  9.4 °C 29.7in /  1006.7hPa WNW 13mph /  20.9km/h 23mph /  37.0km/h 93% 0in /  0.0mm 0.00 W/m2
02:24 50.9 °F /  10.5 °C 48.9 °F /  9.4 °C 29.7in /  1006.7hPa West 19mph /  30.6km/h 24mph /  38.6km/h 93% 0in /  0.0mm 0.00 W/m2
02:29 50.9 °F /  10.5 °C 48.9 °F /  9.4 °C 29.7in /  1006.7hPa NW 30mph /  48.3km/h 30mph /  48.3km/h 93% 0in /  0.0mm 0.00 W/m2
02:34 50.9 °F /  10.5 °C 48.9 °F /  9.4 °C 29.7in /  1006.7hPa NW 10.1mph /  16.3km/h 28mph /  45.1km/h 93% 0in /  0.0mm 0.00 W/m2
02:39 50.9 °F /  10.5 °C 48.9 °F /  9.4 °C 29.7in /  1006.7hPa NW 13mph /  20.9km/h 34mph /  54.7km/h 93% 0in /  0.0mm 0.00 W/m2
02:44 50.9 °F /  10.5 °C 48.7 °F /  9.3 °C 29.7in /  1006.7hPa WSW 25.1mph /  40.4km/h 25mph /  40.2km/h 92% 0in /  0.0mm 0.00 W/m2
02:49 50.9 °F /  10.5 °C 48.7 °F /  9.3 °C 29.7in /  1006.7hPa NNW 17mph /  27.4km/h 35mph /  56.3km/h 92% 0in /  0.0mm 0.00 W/m2
02:54 50.9 °F /  10.5 °C 48.7 °F /  9.3 °C 29.7in /  1006.7hPa WNW 11mph /  17.7km/h 22mph /  35.4km/h 92% 0in /  0.0mm 0.00 W/m2
02:59 50.9 °F /  10.5 °C 48.7 °F /  9.3 °C 29.7in /  1006.7hPa WSW 11mph /  17.7km/h 35mph /  56.3km/h 92% 0in /  0.0mm 0.00 W/m2
03:04 50.9 °F /  10.5 °C 48.7 °F /  9.3 °C 29.7in /  1006.7hPa WNW 12.1mph /  19.5km/h 28mph /  45.1km/h 92% 0in /  0.0mm 0.00 W/m2
03:09 51.1 °F /  10.6 °C 48.9 °F /  9.4 °C 29.7in /  1006.7hPa WNW 17mph /  27.4km/h 25mph /  40.2km/h 92% 0in /  0.0mm 0.00 W/m2
03:14 50.9 °F /  10.5 °C 48.4 °F /  9.1 °C 29.7in /  1006.3hPa NW 10.1mph /  16.3km/h 24mph /  38.6km/h 91% 0in /  0.0mm 0.00 W/m2
03:19 50.9 °F /  10.5 °C 48.4 °F /  9.1 °C 29.7in /  1006.3hPa West 17.9mph /  28.8km/h 21mph /  33.8km/h 91% 0in /  0.0mm 0.00 W/m2
03:24 50.9 °F /  10.5 °C 48.4 °F /  9.1 °C 29.7in /  1006.7hPa West 14.1mph /  22.7km/h 27mph /  43.4km/h 91% 0in /  0.0mm 0.00 W/m2
03:29 51.1 °F /  10.6 °C 48.6 °F /  9.2 °C 29.7in /  1006.7hPa WNW 15mph /  24.1km/h 24mph /  38.6km/h 91% 0in /  0.0mm 0.00 W/m2
03:34 50.9 °F /  10.5 °C 48.4 °F /  9.1 °C 29.7in /  1006.7hPa WNW 30mph /  48.3km/h 30mph /  48.3km/h 91% 0in /  0.0mm 0.00 W/m2
03:39 50.9 °F /  10.5 °C 48.4 °F /  9.1 °C 29.7in /  1006.7hPa NW 15mph /  24.1km/h 36mph /  57.9km/h 91% 0in /  0.0mm 0.00 W/m2
03:44 51.1 °F /  10.6 °C 48.6 °F /  9.2 °C 29.7in /  1006.7hPa WNW 25.1mph /  40.4km/h 27mph /  43.4km/h 91% 0in /  0.0mm 0.00 W/m2
03:49 51.3 °F /  10.7 °C 48.7 °F /  9.3 °C 29.7in /  1006.7hPa West 15mph /  24.1km/h 38mph /  61.1km/h 91% 0.01in /  0.3mm 0.00 W/m2
03:54 51.3 °F /  10.7 °C 48.7 °F /  9.3 °C 29.7in /  1006.7hPa West 13mph /  20.9km/h 23mph /  37.0km/h 91% 0.01in /  0.3mm 0.00 W/m2
03:59 51.1 °F /  10.6 °C 48.6 °F /  9.2 °C 29.7in /  1006.7hPa West 17mph /  27.4km/h 26mph /  41.8km/h 91% 0.01in /  0.3mm 0.00 W/m2
04:04 51.1 °F /  10.6 °C 48.6 °F /  9.2 °C 29.7in /  1006.7hPa WNW 12.1mph /  19.5km/h 18mph /  29.0km/h 91% 0.01in /  0.3mm 0.00 W/m2
04:09 51.1 °F /  10.6 °C 48.6 °F /  9.2 °C 29.7in /  1006.7hPa NW 19.9mph /  32.0km/h 29mph /  46.7km/h 91% 0.01in /  0.3mm 0.00 W/m2
04:14 51.3 °F /  10.7 °C 48.7 °F /  9.3 °C 29.7in /  1006.7hPa WNW 12.1mph /  19.5km/h 31mph /  49.9km/h 91% 0.01in /  0.3mm 0.00 W/m2
04:19 51.3 °F /  10.7 °C 48.4 °F /  9.1 °C 29.7in /  1006.7hPa West 16.1mph /  25.9km/h 24mph /  38.6km/h 90% 0.01in /  0.3mm 0.00 W/m2
04:24 51.3 °F /  10.7 °C 48.4 °F /  9.1 °C 29.7in /  1006.7hPa North 21.9mph /  35.2km/h 24mph /  38.6km/h 90% 0.01in /  0.3mm 0.00 W/m2
04:29 51.3 °F /  10.7 °C 48.4 °F /  9.1 °C 29.7in /  1007.0hPa WNW 16.1mph /  25.9km/h 31mph /  49.9km/h 90% 0.01in /  0.3mm 0.00 W/m2
04:34 51.3 °F /  10.7 °C 48.4 °F /  9.1 °C 29.7in /  1006.7hPa WNW 4.9mph /  7.9km/h 27mph /  43.4km/h 90% 0.01in /  0.3mm 0.00 W/m2
04:39 51.4 °F /  10.8 °C 48.6 °F /  9.2 °C 29.7in /  1006.7hPa West 17.9mph /  28.8km/h 36mph /  57.9km/h 90% 0.01in /  0.3mm 0.00 W/m2
04:44 51.4 °F /  10.8 °C 48.6 °F /  9.2 °C 29.7in /  1007.0hPa West 14.1mph /  22.7km/h 27mph /  43.4km/h 90% 0.01in /  0.3mm 0.00 W/m2
04:49 51.3 °F /  10.7 °C 48.4 °F /  9.1 °C 29.7in /  1006.7hPa WNW 17.9mph /  28.8km/h 34mph /  54.7km/h 90% 0in /  0.0mm 0.00 W/m2
04:54 50.9 °F /  10.5 °C 48.4 °F /  9.1 °C 29.7in /  1006.7hPa WNW 19.9mph /  32.0km/h 27mph /  43.4km/h 91% 0in /  0.0mm 0.00 W/m2
04:59 50.9 °F /  10.5 °C 48.4 °F /  9.1 °C 29.7in /  1007.0hPa West 19mph /  30.6km/h 29mph /  46.7km/h 91% 0in /  0.0mm 0.00 W/m2
05:04 50.9 °F /  10.5 °C 48.7 °F /  9.3 °C 29.7in /  1007.0hPa WNW 23mph /  37.0km/h 26mph /  41.8km/h 92% 0in /  0.0mm 0.00 W/m2
05:09 50.7 °F /  10.4 °C 48.6 °F /  9.2 °C 29.7in /  1007.0hPa WNW 15mph /  24.1km/h 31mph /  49.9km/h 92% 0in /  0.0mm 0.00 W/m2
05:14 50.7 °F /  10.4 °C 48.6 °F /  9.2 °C 29.7in /  1006.7hPa WNW 12.1mph /  19.5km/h 27mph /  43.4km/h 92% 0in /  0.0mm 0.00 W/m2
05:19 50.7 °F /  10.4 °C 48.6 °F /  9.2 °C 29.7in /  1007.0hPa West 14.1mph /  22.7km/h 32mph /  51.5km/h 92% 0in /  0.0mm 0.00 W/m2
05:24 50.9 °F /  10.5 °C 48.7 °F /  9.3 °C 29.7in /  1007.0hPa WNW 17.9mph /  28.8km/h 31mph /  49.9km/h 92% 0in /  0.0mm 0.00 W/m2
05:29 50.7 °F /  10.4 °C 48.6 °F /  9.2 °C 29.7in /  1006.7hPa WNW 14.1mph /  22.7km/h 25mph /  40.2km/h 92% 0in /  0.0mm 0.00 W/m2
05:34 50.9 °F /  10.5 °C 48.7 °F /  9.3 °C 29.7in /  1006.7hPa West 19mph /  30.6km/h 28mph /  45.1km/h 92% 0in /  0.0mm 0.00 W/m2
05:39 50.7 °F /  10.4 °C 48.7 °F /  9.3 °C 29.7in /  1007.0hPa West 15mph /  24.1km/h 29mph /  46.7km/h 93% 0in /  0.0mm 0.00 W/m2
05:44 50.7 °F /  10.4 °C 48.7 °F /  9.3 °C 29.7in /  1007.0hPa West 14.1mph /  22.7km/h 23mph /  37.0km/h 93% 0in /  0.0mm 0.00 W/m2
05:49 50.7 °F /  10.4 °C 48.7 °F /  9.3 °C 29.7in /  1007.0hPa West 11mph /  17.7km/h 23mph /  37.0km/h 93% 0in /  0.0mm 0.00 W/m2
05:54 50.7 °F /  10.4 °C 48.7 °F /  9.3 °C 29.7in /  1007.0hPa West 11mph /  17.7km/h 23mph /  37.0km/h 93% 0in /  0.0mm 0.00 W/m2
05:59 50.7 °F /  10.4 °C 48.7 °F /  9.3 °C 29.7in /  1007.0hPa WNW 36mph /  57.9km/h 36mph /  57.9km/h 93% 0in /  0.0mm 0.00 W/m2
06:04 50.7 °F /  10.4 °C 48.7 °F /  9.3 °C 29.7in /  1007.0hPa West 16.1mph /  25.9km/h 31mph /  49.9km/h 93% 0in /  0.0mm 0.00 W/m2
06:09 50.7 °F /  10.4 °C 48.7 °F /  9.3 °C 29.7in /  1007.3hPa WNW 19.9mph /  32.0km/h 21mph /  33.8km/h 93% 0in /  0.0mm 0.00 W/m2
06:14 50.7 °F /  10.4 °C 48.7 °F /  9.3 °C 29.7in /  1007.3hPa West 21mph /  33.8km/h 21mph /  33.8km/h 93% 0in /  0.0mm 0.00 W/m2
06:19 50.7 °F /  10.4 °C 49.1 °F /  9.5 °C 29.7in /  1007.3hPa NW 8.1mph /  13.0km/h 28mph /  45.1km/h 94% 0in /  0.0mm 0.00 W/m2
06:24 50.5 °F /  10.3 °C 48.9 °F /  9.4 °C 29.7in /  1007.0hPa West 6mph /  9.7km/h 25mph /  40.2km/h 94% 0in /  0.0mm 0.00 W/m2
06:29 50.7 °F /  10.4 °C 49.1 °F /  9.5 °C 29.7in /  1007.3hPa West 19mph /  30.6km/h 30mph /  48.3km/h 94% 0in /  0.0mm 0.00 W/m2
06:34 50.7 °F /  10.4 °C 49.1 °F /  9.5 °C 29.7in /  1007.0hPa WNW 17mph /  27.4km/h 36mph /  57.9km/h 94% 0in /  0.0mm 0.00 W/m2
06:39 50.7 °F /  10.4 °C 49.1 °F /  9.5 °C 29.7in /  1007.3hPa West 16.1mph /  25.9km/h 29mph /  46.7km/h 94% 0in /  0.0mm 0.00 W/m2
06:44 50.7 °F /  10.4 °C 49.1 °F /  9.5 °C 29.7in /  1007.3hPa WNW 17mph /  27.4km/h 28mph /  45.1km/h 94% 0in /  0.0mm 0.00 W/m2
06:49 50.7 °F /  10.4 °C 49.1 °F /  9.5 °C 29.7in /  1007.3hPa West 14.1mph /  22.7km/h 25mph /  40.2km/h 94% 0in /  0.0mm 5.00 W/m2
06:54 50.7 °F /  10.4 °C 49.1 °F /  9.5 °C 29.7in /  1007.3hPa West 11mph /  17.7km/h 19mph /  30.6km/h 94% 0in /  0.0mm 7.00 W/m2
06:59 50.7 °F /  10.4 °C 49.1 °F /  9.5 °C 29.7in /  1007.3hPa WSW 19mph /  30.6km/h 28mph /  45.1km/h 94% 0in /  0.0mm 9.00 W/m2
07:04 50.9 °F /  10.5 °C 49.3 °F /  9.6 °C 29.7in /  1007.3hPa North 17.9mph /  28.8km/h 38mph /  61.1km/h 94% 0in /  0.0mm 11.00 W/m2
07:09 50.9 °F /  10.5 °C 48.9 °F /  9.4 °C 29.7in /  1007.3hPa NW 25.9mph /  41.7km/h 36mph /  57.9km/h 93% 0in /  0.0mm 12.00 W/m2
07:14 51.1 °F /  10.6 °C 49.1 °F /  9.5 °C 29.7in /  1007.3hPa NW 15mph /  24.1km/h 26mph /  41.8km/h 93% 0in /  0.0mm 16.00 W/m2
07:19 51.1 °F /  10.6 °C 49.1 °F /  9.5 °C 29.7in /  1007.3hPa WNW 8.9mph /  14.3km/h 23mph /  37.0km/h 93% 0in /  0.0mm 19.00 W/m2
07:24 50.9 °F /  10.5 °C 48.9 °F /  9.4 °C 29.7in /  1007.3hPa NW 8.9mph /  14.3km/h 37mph /  59.5km/h 93% 0in /  0.0mm 16.00 W/m2
07:29 50.9 °F /  10.5 °C 48.9 °F /  9.4 °C 29.7in /  1007.3hPa West 23mph /  37.0km/h 25mph /  40.2km/h 93% 0in /  0.0mm 21.00 W/m2
07:34 50.9 °F /  10.5 °C 48.9 °F /  9.4 °C 29.7in /  1007.3hPa WNW 12.1mph /  19.5km/h 28mph /  45.1km/h 93% 0.01in /  0.3mm 23.00 W/m2
07:39 50.9 °F /  10.5 °C 48.9 °F /  9.4 °C 29.8in /  1007.7hPa NNW 25.9mph /  41.7km/h 34mph /  54.7km/h 93% 0.01in /  0.3mm 28.00 W/m2
07:44 50.9 °F /  10.5 °C 48.9 °F /  9.4 °C 29.7in /  1007.3hPa WNW 21mph /  33.8km/h 25mph /  40.2km/h 93% 0.01in /  0.3mm 33.00 W/m2
07:49 50.9 °F /  10.5 °C 48.9 °F /  9.4 °C 29.7in /  1007.3hPa WNW 23mph /  37.0km/h 34mph /  54.7km/h 93% 0.01in /  0.3mm 40.00 W/m2
07:54 50.9 °F /  10.5 °C 49.3 °F /  9.6 °C 29.7in /  1007.3hPa WNW 16.1mph /  25.9km/h 33mph /  53.1km/h 94% 0.01in /  0.3mm 40.00 W/m2
07:59 50.9 °F /  10.5 °C 49.3 °F /  9.6 °C 29.8in /  1007.7hPa West 11mph /  17.7km/h 31mph /  49.9km/h 94% 0.01in /  0.3mm 35.00 W/m2
08:04 51.1 °F /  10.6 °C 49.5 °F /  9.7 °C 29.7in /  1007.3hPa WNW 16.1mph /  25.9km/h 31mph /  49.9km/h 94% 0.01in /  0.3mm 35.00 W/m2
08:09 51.3 °F /  10.7 °C 49.6 °F /  9.8 °C 29.8in /  1007.7hPa WSW 33mph /  53.1km/h 33mph /  53.1km/h 94% 0.01in /  0.3mm 39.00 W/m2
08:14 51.1 °F /  10.6 °C 49.1 °F /  9.5 °C 29.7in /  1007.3hPa WNW 17mph /  27.4km/h 25mph /  40.2km/h 93% 0.01in /  0.3mm 47.00 W/m2
08:19 51.3 °F /  10.7 °C 49.3 °F /  9.6 °C 29.8in /  1007.7hPa West 17mph /  27.4km/h 34mph /  54.7km/h 93% 0.01in /  0.3mm 53.00 W/m2
08:24 51.3 °F /  10.7 °C 49.3 °F /  9.6 °C 29.8in /  1008.0hPa West 15mph /  24.1km/h 35mph /  56.3km/h 93% 0.01in /  0.3mm 44.00 W/m2
08:29 51.3 °F /  10.7 °C 49.3 °F /  9.6 °C 29.8in /  1008.0hPa WNW 16.1mph /  25.9km/h 30mph /  48.3km/h 93% 0.01in /  0.3mm 46.00 W/m2
08:34 51.3 °F /  10.7 °C 49.3 °F /  9.6 °C 29.8in /  1008.0hPa WNW 21.9mph /  35.2km/h 28mph /  45.1km/h 93% 0in /  0.0mm 51.00 W/m2
08:39 51.3 °F /  10.7 °C 49.3 °F /  9.6 °C 29.8in /  1008.0hPa WNW 33mph /  53.1km/h 33mph /  53.1km/h 93% 0in /  0.0mm 49.00 W/m2
08:44 51.4 °F /  10.8 °C 49.5 °F /  9.7 °C 29.8in /  1008.0hPa WNW 19.9mph /  32.0km/h 27mph /  43.4km/h 93% 0in /  0.0mm 51.00 W/m2
08:49 51.4 °F /  10.8 °C 49.5 °F /  9.7 °C 29.8in /  1008.0hPa West 12.1mph /  19.5km/h 35mph /  56.3km/h 93% 0in /  0.0mm 53.00 W/m2
08:54 51.4 °F /  10.8 °C 49.5 °F /  9.7 °C 29.8in /  1008.4hPa West 8.9mph /  14.3km/h 18mph /  29.0km/h 93% 0in /  0.0mm 58.00 W/m2
08:59 51.4 °F /  10.8 °C 49.5 °F /  9.7 °C 29.8in /  1008.4hPa WNW 17mph /  27.4km/h 26mph /  41.8km/h 93% 0in /  0.0mm 56.00 W/m2
09:04 51.4 °F /  10.8 °C 49.5 °F /  9.7 °C 29.8in /  1008.4hPa NW 12.1mph /  19.5km/h 26mph /  41.8km/h 93% 0in /  0.0mm 67.00 W/m2
09:09 51.4 °F /  10.8 °C 49.5 °F /  9.7 °C 29.8in /  1008.4hPa WNW 13mph /  20.9km/h 34mph /  54.7km/h 93% 0in /  0.0mm 58.00 W/m2
09:14 51.4 °F /  10.8 °C 49.5 °F /  9.7 °C 29.8in /  1008.4hPa West 10.1mph /  16.3km/h 25mph /  40.2km/h 93% 0in /  0.0mm 70.00 W/m2
09:19 51.4 °F /  10.8 °C 49.5 °F /  9.7 °C 29.8in /  1008.4hPa West 17.9mph /  28.8km/h 26mph /  41.8km/h 93% 0in /  0.0mm 72.00 W/m2
09:24 51.4 °F /  10.8 °C 49.5 °F /  9.7 °C 29.8in /  1008.4hPa NW 13mph /  20.9km/h 23mph /  37.0km/h 93% 0in /  0.0mm 90.00 W/m2
09:29 51.4 °F /  10.8 °C 49.5 °F /  9.7 °C 29.8in /  1008.4hPa West 16.1mph /  25.9km/h 29mph /  46.7km/h 93% 0in /  0.0mm 93.00 W/m2
09:34 51.4 °F /  10.8 °C 49.5 °F /  9.7 °C 29.8in /  1008.4hPa WNW 10.1mph /  16.3km/h 26mph /  41.8km/h 93% 0in /  0.0mm 67.00 W/m2
09:39 51.4 °F /  10.8 °C 49.8 °F /  9.9 °C 29.8in /  1008.4hPa WNW 14.1mph /  22.7km/h 23mph /  37.0km/h 94% 0in /  0.0mm 63.00 W/m2
09:44 51.4 °F /  10.8 °C 49.8 °F /  9.9 °C 29.8in /  1008.4hPa West 14.1mph /  22.7km/h 21mph /  33.8km/h 94% 0in /  0.0mm 83.00 W/m2
09:49 51.4 °F /  10.8 °C 49.8 °F /  9.9 °C 29.8in /  1008.4hPa West 17mph /  27.4km/h 23mph /  37.0km/h 94% 0in /  0.0mm 97.00 W/m2
09:54 51.6 °F /  10.9 °C 50 °F /  10.0 °C 29.8in /  1008.4hPa WNW 11mph /  17.7km/h 29mph /  46.7km/h 94% 0in /  0.0mm 98.00 W/m2
09:59 51.6 °F /  10.9 °C 50 °F /  10.0 °C 29.8in /  1008.4hPa West 15mph /  24.1km/h 23mph /  37.0km/h 94% 0in /  0.0mm 97.00 W/m2
10:04 51.6 °F /  10.9 °C 50 °F /  10.0 °C 29.8in /  1008.4hPa WNW 16.1mph /  25.9km/h 30mph /  48.3km/h 94% 0in /  0.0mm 88.00 W/m2
10:09 51.8 °F /  11.0 °C 50.2 °F /  10.1 °C 29.8in /  1008.7hPa WNW 17.9mph /  28.8km/h 28mph /  45.1km/h 94% 0in /  0.0mm 90.00 W/m2
10:14 51.8 °F /  11.0 °C 49.8 °F /  9.9 °C 29.8in /  1008.4hPa West 6.9mph /  11.1km/h 29mph /  46.7km/h 93% 0in /  0.0mm 107.00 W/m2
10:19 52.2 °F /  11.2 °C 50.5 °F /  10.3 °C 29.8in /  1008.0hPa WNW 17.9mph /  28.8km/h 30mph /  48.3km/h 94% 0in /  0.0mm 128.00 W/m2
10:24 52.2 °F /  11.2 °C 50.2 °F /  10.1 °C 29.8in /  1008.4hPa WSW 17.9mph /  28.8km/h 26mph /  41.8km/h 93% 0in /  0.0mm 151.00 W/m2
10:29 52.3 °F /  11.3 °C 50.4 °F /  10.2 °C 29.8in /  1008.4hPa West 19.9mph /  32.0km/h 28mph /  45.1km/h 93% 0in /  0.0mm 153.00 W/m2
10:34 52.5 °F /  11.4 °C 50.5 °F /  10.3 °C 29.8in /  1008.4hPa West 16.1mph /  25.9km/h 34mph /  54.7km/h 93% 0in /  0.0mm 151.00 W/m2
10:39 52.5 °F /  11.4 °C 50.2 °F /  10.1 °C 29.8in /  1008.4hPa WNW 8.1mph /  13.0km/h 37mph /  59.5km/h 92% 0in /  0.0mm 125.00 W/m2
10:44 52.7 °F /  11.5 °C 50.4 °F /  10.2 °C 29.8in /  1008.4hPa NW 11mph /  17.7km/h 32mph /  51.5km/h 92% 0in /  0.0mm 109.00 W/m2
10:49 52.7 °F /  11.5 °C 50.2 °F /  10.1 °C 29.8in /  1008.7hPa NNW 14.1mph /  22.7km/h 34mph /  54.7km/h 91% 0in /  0.0mm 128.00 W/m2
10:54 52.7 °F /  11.5 °C 50.2 °F /  10.1 °C 29.8in /  1008.4hPa West 35mph /  56.3km/h 35mph /  56.3km/h 91% 0in /  0.0mm 149.00 W/m2
10:59 52.5 °F /  11.4 °C 50 °F /  10.0 °C 29.8in /  1008.4hPa West 13mph /  20.9km/h 29mph /  46.7km/h 91% 0in /  0.0mm 155.00 W/m2
11:04 52.7 °F /  11.5 °C 50.2 °F /  10.1 °C 29.8in /  1008.4hPa NW 11mph /  17.7km/h 22mph /  35.4km/h 91% 0in /  0.0mm 127.00 W/m2
11:09 52.7 °F /  11.5 °C 50.2 °F /  10.1 °C 29.8in /  1008.4hPa West 30mph /  48.3km/h 30mph /  48.3km/h 91% 0in /  0.0mm 127.00 W/m2
11:14 52.7 °F /  11.5 °C 50.2 °F /  10.1 °C 29.8in /  1008.4hPa WNW 37mph /  59.5km/h 37mph /  59.5km/h 91% 0in /  0.0mm 144.00 W/m2
11:19 52.9 °F /  11.6 °C 50.4 °F /  10.2 °C 29.8in /  1008.4hPa WNW 12.1mph /  19.5km/h 33mph /  53.1km/h 91% 0in /  0.0mm 125.00 W/m2
11:24 52.7 °F /  11.5 °C 50.2 °F /  10.1 °C 29.8in /  1008.4hPa West 17mph /  27.4km/h 33mph /  53.1km/h 91% 0in /  0.0mm 127.00 W/m2
11:29 53.1 °F /  11.7 °C 50.5 °F /  10.3 °C 29.8in /  1008.4hPa WSW 8.9mph /  14.3km/h 25mph /  40.2km/h 91% 0in /  0.0mm 167.00 W/m2
11:34 53.1 °F /  11.7 °C 50.2 °F /  10.1 °C 29.8in /  1008.7hPa SW 14.1mph /  22.7km/h 29mph /  46.7km/h 90% 0in /  0.0mm 128.00 W/m2
11:39 53.1 °F /  11.7 °C 50.2 °F /  10.1 °C 29.8in /  1008.7hPa West 31mph /  49.9km/h 31mph /  49.9km/h 90% 0in /  0.0mm 151.00 W/m2
11:44 53.1 °F /  11.7 °C 50.2 °F /  10.1 °C 29.8in /  1008.7hPa West 25.9mph /  41.7km/h 33mph /  53.1km/h 90% 0in /  0.0mm 116.00 W/m2
11:49 53.1 °F /  11.7 °C 50.2 °F /  10.1 °C 29.8in /  1008.7hPa WSW 21mph /  33.8km/h 28mph /  45.1km/h 90% 0in /  0.0mm 111.00 W/m2
11:54 53.1 °F /  11.7 °C 50.2 °F /  10.1 °C 29.8in /  1009.0hPa NW 15mph /  24.1km/h 32mph /  51.5km/h 90% 0in /  0.0mm 107.00 W/m2
11:59 53.2 °F /  11.8 °C 50.4 °F /  10.2 °C 29.8in /  1008.7hPa West 15mph /  24.1km/h 33mph /  53.1km/h 90% 0.01in /  0.3mm 153.00 W/m2
12:04 53.1 °F /  11.7 °C 50.2 °F /  10.1 °C 29.8in /  1008.7hPa WNW 15mph /  24.1km/h 30mph /  48.3km/h 90% 0.01in /  0.3mm 111.00 W/m2
12:09 53.2 °F /  11.8 °C 50.4 °F /  10.2 °C 29.8in /  1008.7hPa NW 19.9mph /  32.0km/h 24mph /  38.6km/h 90% 0.01in /  0.3mm 123.00 W/m2
12:14 53.1 °F /  11.7 °C 50.2 °F /  10.1 °C 29.8in /  1008.7hPa NW 17.9mph /  28.8km/h 22mph /  35.4km/h 90% 0.01in /  0.3mm 109.00 W/m2
12:19 53.1 °F /  11.7 °C 50.2 °F /  10.1 °C 29.8in /  1008.7hPa WNW 19mph /  30.6km/h 29mph /  46.7km/h 90% 0.01in /  0.3mm 109.00 W/m2
12:24 53.1 °F /  11.7 °C 50.2 °F /  10.1 °C 29.8in /  1008.7hPa West 8.9mph /  14.3km/h 29mph /  46.7km/h 90% 0.01in /  0.3mm 137.00 W/m2
12:29 53.2 °F /  11.8 °C 50.4 °F /  10.2 °C 29.8in /  1008.7hPa West 33mph /  53.1km/h 33mph /  53.1km/h 90% 0.01in /  0.3mm 107.00 W/m2
12:34 53.1 °F /  11.7 °C 49.8 °F /  9.9 °C 29.8in /  1009.0hPa WNW 16.1mph /  25.9km/h 34mph /  54.7km/h 89% 0.01in /  0.3mm 95.00 W/m2
12:39 53.1 °F /  11.7 °C 49.8 °F /  9.9 °C 29.8in /  1009.0hPa WSW 19mph /  30.6km/h 31mph /  49.9km/h 89% 0.01in /  0.3mm 127.00 W/m2
12:44 52.9 °F /  11.6 °C 49.6 °F /  9.8 °C 29.8in /  1009.0hPa WSW 13mph /  20.9km/h 28mph /  45.1km/h 89% 0.01in /  0.3mm 104.00 W/m2
12:49 53.1 °F /  11.7 °C 50.2 °F /  10.1 °C 29.8in /  1008.7hPa West 21.9mph /  35.2km/h 30mph /  48.3km/h 90% 0.01in /  0.3mm 132.00 W/m2
12:54 53.1 °F /  11.7 °C 49.8 °F /  9.9 °C 29.8in /  1009.0hPa WNW 23mph /  37.0km/h 30mph /  48.3km/h 89% 0.01in /  0.3mm 93.00 W/m2
12:59 53.1 °F /  11.7 °C 50.2 °F /  10.1 °C 29.8in /  1009.0hPa West 21mph /  33.8km/h 31mph /  49.9km/h 90% 0in /  0.0mm 88.00 W/m2
13:04 52.7 °F /  11.5 °C 49.8 °F /  9.9 °C 29.8in /  1009.0hPa WNW 28mph /  45.1km/h 31mph /  49.9km/h 90% 0in /  0.0mm 91.00 W/m2
13:09 52.7 °F /  11.5 °C 49.8 °F /  9.9 °C 29.8in /  1009.0hPa NW 17.9mph /  28.8km/h 33mph /  53.1km/h 90% 0in /  0.0mm 88.00 W/m2
13:14 52.7 °F /  11.5 °C 49.8 °F /  9.9 °C 29.8in /  1009.0hPa NNW 13mph /  20.9km/h 26mph /  41.8km/h 90% 0in /  0.0mm 100.00 W/m2
13:19 52.7 °F /  11.5 °C 49.8 °F /  9.9 °C 29.8in /  1009.0hPa WNW 17.9mph /  28.8km/h 31mph /  49.9km/h 90% 0in /  0.0mm 83.00 W/m2
13:24 52.7 °F /  11.5 °C 49.8 °F /  9.9 °C 29.8in /  1009.0hPa WNW 23.9mph /  38.5km/h 31mph /  49.9km/h 90% 0in /  0.0mm 70.00 W/m2
13:29 52.5 °F /  11.4 °C 49.6 °F /  9.8 °C 29.8in /  1009.0hPa WNW 23.9mph /  38.5km/h 31mph /  49.9km/h 90% 0in /  0.0mm 65.00 W/m2
13:34 52.3 °F /  11.3 °C 49.5 °F /  9.7 °C 29.8in /  1009.0hPa West 27.1mph /  43.6km/h 27mph /  43.4km/h 90% 0in /  0.0mm 72.00 W/m2
13:39 52.2 °F /  11.2 °C 49.6 °F /  9.8 °C 29.8in /  1009.0hPa West 17mph /  27.4km/h 26mph /  41.8km/h 91% 0in /  0.0mm 62.00 W/m2
13:44 51.8 °F /  11.0 °C 49.3 °F /  9.6 °C 29.8in /  1009.0hPa WNW 15mph /  24.1km/h 32mph /  51.5km/h 91% 0in /  0.0mm 104.00 W/m2
13:49 51.6 °F /  10.9 °C 49.1 °F /  9.5 °C 29.8in /  1009.4hPa NNW 15mph /  24.1km/h 34mph /  54.7km/h 91% 0in /  0.0mm 113.00 W/m2
13:54 51.4 °F /  10.8 °C 49.3 °F /  9.6 °C 29.8in /  1009.4hPa West 17.9mph /  28.8km/h 30mph /  48.3km/h 92% 0in /  0.0mm 135.00 W/m2
13:59 51.3 °F /  10.7 °C 49.1 °F /  9.5 °C 29.8in /  1009.4hPa West 17.9mph /  28.8km/h 28mph /  45.1km/h 92% 0in /  0.0mm 113.00 W/m2
14:04 51.3 °F /  10.7 °C 49.1 °F /  9.5 °C 29.8in /  1009.4hPa WNW 15mph /  24.1km/h 22mph /  35.4km/h 92% 0in /  0.0mm 127.00 W/m2
14:09 51.3 °F /  10.7 °C 49.1 °F /  9.5 °C 29.8in /  1009.4hPa West 8.9mph /  14.3km/h 19mph /  30.6km/h 92% 0in /  0.0mm 114.00 W/m2
14:14 51.4 °F /  10.8 °C 49.3 °F /  9.6 °C 29.8in /  1009.4hPa WNW 6.9mph /  11.1km/h 13mph /  20.9km/h 92% 0in /  0.0mm 128.00 W/m2
14:19 51.4 °F /  10.8 °C 48.9 °F /  9.4 °C 29.8in /  1009.4hPa WNW 17mph /  27.4km/h 25mph /  40.2km/h 91% 0in /  0.0mm 146.00 W/m2
14:24 51.4 °F /  10.8 °C 48.9 °F /  9.4 °C 29.8in /  1009.0hPa West 13mph /  20.9km/h 23mph /  37.0km/h 91% 0in /  0.0mm 134.00 W/m2
14:29 51.6 °F /  10.9 °C 48.7 °F /  9.3 °C 29.8in /  1009.4hPa WNW 11mph /  17.7km/h 17mph /  27.4km/h 90% 0in /  0.0mm 132.00 W/m2
14:34 51.6 °F /  10.9 °C 48.7 °F /  9.3 °C 29.8in /  1009.4hPa West 11mph /  17.7km/h 20mph /  32.2km/h 90% 0in /  0.0mm 123.00 W/m2
14:39 51.6 °F /  10.9 °C 48.7 °F /  9.3 °C 29.8in /  1009.4hPa NW 8.9mph /  14.3km/h 10mph /  16.1km/h 90% 0in /  0.0mm 127.00 W/m2
14:44 51.6 °F /  10.9 °C 48.6 °F /  9.2 °C 29.8in /  1009.4hPa West 8.9mph /  14.3km/h 21mph /  33.8km/h 89% 0in /  0.0mm 127.00 W/m2
14:49 51.6 °F /  10.9 °C 48.6 °F /  9.2 °C 29.8in /  1009.4hPa NW 10.1mph /  16.3km/h 16mph /  25.7km/h 89% 0in /  0.0mm 134.00 W/m2
14:54 51.3 °F /  10.7 °C 48.4 °F /  9.1 °C 29.8in /  1009.7hPa West 8.9mph /  14.3km/h 22mph /  35.4km/h 90% 0in /  0.0mm 114.00 W/m2
14:59 51.3 °F /  10.7 °C 48.4 °F /  9.1 °C 29.8in /  1009.7hPa West 6mph /  9.7km/h 15mph /  24.1km/h 90% 0in /  0.0mm 88.00 W/m2
15:04 50.9 °F /  10.5 °C 48 °F /  8.9 °C 29.8in /  1009.7hPa WNW 11mph /  17.7km/h 18mph /  29.0km/h 90% 0in /  0.0mm 79.00 W/m2
15:09 50.7 °F /  10.4 °C 48.2 °F /  9.0 °C 29.8in /  1009.7hPa NW 12.1mph /  19.5km/h 12mph /  19.3km/h 91% 0in /  0.0mm 76.00 W/m2
15:14 50.5 °F /  10.3 °C 48.4 °F /  9.1 °C 29.8in /  1009.7hPa WNW 15mph /  24.1km/h 21mph /  33.8km/h 92% 0in /  0.0mm 91.00 W/m2
15:19 50.4 °F /  10.2 °C 48.2 °F /  9.0 °C 29.8in /  1009.7hPa WNW 17mph /  27.4km/h 19mph /  30.6km/h 92% 0in /  0.0mm 74.00 W/m2
15:24 50.2 °F /  10.1 °C 48 °F /  8.9 °C 29.8in /  1009.7hPa West 6mph /  9.7km/h 13mph /  20.9km/h 92% 0in /  0.0mm 72.00 W/m2
15:29 50 °F /  10.0 °C 48 °F /  8.9 °C 29.8in /  1009.4hPa West 8.9mph /  14.3km/h 19mph /  30.6km/h 93% 0in /  0.0mm 77.00 W/m2
15:34 50 °F /  10.0 °C 48 °F /  8.9 °C 29.8in /  1009.4hPa NW 8.9mph /  14.3km/h 13mph /  20.9km/h 93% 0in /  0.0mm 69.00 W/m2
15:39 49.8 °F /  9.9 °C 47.8 °F /  8.8 °C 29.8in /  1009.7hPa WNW 6mph /  9.7km/h 12mph /  19.3km/h 93% 0in /  0.0mm 67.00 W/m2
15:44 49.8 °F /  9.9 °C 47.8 °F /  8.8 °C 29.8in /  1009.7hPa WNW 2mph /  3.2km/h 10mph /  16.1km/h 93% 0in /  0.0mm 47.00 W/m2
15:49 49.6 °F /  9.8 °C 47.7 °F /  8.7 °C 29.8in /  1009.7hPa West 10.1mph /  16.3km/h 18mph /  29.0km/h 93% 0in /  0.0mm 42.00 W/m2
15:54 49.5 °F /  9.7 °C 47.5 °F /  8.6 °C 29.8in /  1009.7hPa West 4.9mph /  7.9km/h 13mph /  20.9km/h 93% 0in /  0.0mm 65.00 W/m2
15:59 49.5 °F /  9.7 °C 47.8 °F /  8.8 °C 29.8in /  1009.7hPa WNW 4mph /  6.4km/h 20mph /  32.2km/h 94% 0in /  0.0mm 53.00 W/m2
16:04 49.1 °F /  9.5 °C 47.5 °F /  8.6 °C 29.8in /  1009.7hPa West 16.1mph /  25.9km/h 25mph /  40.2km/h 94% 0in /  0.0mm 47.00 W/m2
16:09 49.1 °F /  9.5 °C 47.5 °F /  8.6 °C 29.8in /  1009.7hPa WNW 6.9mph /  11.1km/h 11mph /  17.7km/h 94% 0in /  0.0mm 47.00 W/m2
16:14 48.9 °F /  9.4 °C 46.9 °F /  8.3 °C 29.8in /  1009.7hPa WNW 2.9mph /  4.7km/h 15mph /  24.1km/h 93% 0in /  0.0mm 51.00 W/m2
16:19 48.9 °F /  9.4 °C 47.3 °F /  8.5 °C 29.8in /  1009.4hPa WNW 6.9mph /  11.1km/h 12mph /  19.3km/h 94% 0in /  0.0mm 44.00 W/m2
16:24 49.1 °F /  9.5 °C 47.5 °F /  8.6 °C 29.8in /  1009.7hPa WNW 10.1mph /  16.3km/h 10mph /  16.1km/h 94% 0in /  0.0mm 46.00 W/m2
16:29 48.9 °F /  9.4 °C 47.3 °F /  8.5 °C 29.8in /  1009.7hPa West 6mph /  9.7km/h 15mph /  24.1km/h 94% 0in /  0.0mm 47.00 W/m2
16:34 48.9 °F /  9.4 °C 47.3 °F /  8.5 °C 29.8in /  1009.7hPa WNW 6mph /  9.7km/h 11mph /  17.7km/h 94% 0in /  0.0mm 37.00 W/m2
16:39 48.7 °F /  9.3 °C 47.1 °F /  8.4 °C 29.8in /  1009.7hPa WNW 11mph /  17.7km/h 14mph /  22.5km/h 94% 0in /  0.0mm 46.00 W/m2
16:44 48.7 °F /  9.3 °C 47.1 °F /  8.4 °C 29.8in /  1009.7hPa NNW 8.1mph /  13.0km/h 11mph /  17.7km/h 94% 0in /  0.0mm 44.00 W/m2
16:49 48.6 °F /  9.2 °C 46.9 °F /  8.3 °C 29.8in /  1009.7hPa WNW 8.1mph /  13.0km/h 13mph /  20.9km/h 94% 0in /  0.0mm 46.00 W/m2
16:54 48.6 °F /  9.2 °C 46.9 °F /  8.3 °C 29.8in /  1009.4hPa WNW 8.9mph /  14.3km/h 12mph /  19.3km/h 94% 0in /  0.0mm 39.00 W/m2
16:59 48.6 °F /  9.2 °C 46.9 °F /  8.3 °C 29.8in /  1009.4hPa WNW 6mph /  9.7km/h 13mph /  20.9km/h 94% 0in /  0.0mm 28.00 W/m2
17:04 48.6 °F /  9.2 °C 46.9 °F /  8.3 °C 29.8in /  1009.7hPa West 8.9mph /  14.3km/h 10mph /  16.1km/h 94% 0in /  0.0mm 23.00 W/m2
17:09 48.6 °F /  9.2 °C 46.9 °F /  8.3 °C 29.8in /  1009.7hPa NNW 2mph /  3.2km/h 13mph /  20.9km/h 94% 0in /  0.0mm 25.00 W/m2
17:14 48.6 °F /  9.2 °C 46.9 °F /  8.3 °C 29.8in /  1009.7hPa WNW 8.1mph /  13.0km/h 15mph /  24.1km/h 94% 0in /  0.0mm 21.00 W/m2
17:19 48.6 °F /  9.2 °C 46.9 °F /  8.3 °C 29.8in /  1009.7hPa NW 4mph /  6.4km/h 14mph /  22.5km/h 94% 0in /  0.0mm 14.00 W/m2
17:24 48.4 °F /  9.1 °C 46.8 °F /  8.2 °C 29.8in /  1009.7hPa West 10.1mph /  16.3km/h 14mph /  22.5km/h 94% 0in /  0.0mm 14.00 W/m2
17:29 48.6 °F /  9.2 °C 46.9 °F /  8.3 °C 29.8in /  1010.0hPa West 8.9mph /  14.3km/h 14mph /  22.5km/h 94% 0in /  0.0mm 14.00 W/m2
17:34 48.4 °F /  9.1 °C 46.8 °F /  8.2 °C 29.8in /  1010.0hPa WNW 17mph /  27.4km/h 17mph /  27.4km/h 94% 0in /  0.0mm 11.00 W/m2
17:39 48.4 °F /  9.1 °C 46.8 °F /  8.2 °C 29.8in /  1010.0hPa WNW 6mph /  9.7km/h 10mph /  16.1km/h 94% 0in /  0.0mm 11.00 W/m2
17:44 48.4 °F /  9.1 °C 46.8 °F /  8.2 °C 29.8in /  1010.0hPa WNW 8.9mph /  14.3km/h 11mph /  17.7km/h 94% 0in /  0.0mm 9.00 W/m2
17:49 48.4 °F /  9.1 °C 46.8 °F /  8.2 °C 29.8in /  1010.0hPa West 4mph /  6.4km/h 15mph /  24.1km/h 94% 0in /  0.0mm 7.00 W/m2
17:53 48.4 °F /  9.1 °C 46.8 °F /  8.2 °C 29.8in /  1010.0hPa West 6.9mph /  11.1km/h 13mph /  20.9km/h 94% 0in /  0.0mm 5.00 W/m2
17:58 48.4 °F /  9.1 °C 46.8 °F /  8.2 °C 29.8in /  1010.0hPa WNW 6mph /  9.7km/h 9mph /  14.5km/h 94% 0in /  0.0mm 0.00 W/m2
18:04 48.4 °F /  9.1 °C 46.8 °F /  8.2 °C 29.8in /  1010.4hPa West 4mph /  6.4km/h 9mph /  14.5km/h 94% 0in /  0.0mm 0.00 W/m2
18:09 48.4 °F /  9.1 °C 46.8 °F /  8.2 °C 29.8in /  1010.4hPa WNW 6mph /  9.7km/h 10mph /  16.1km/h 94% 0in /  0.0mm 0.00 W/m2
18:14 48.4 °F /  9.1 °C 46.8 °F /  8.2 °C 29.8in /  1010.0hPa WSW 4mph /  6.4km/h 9mph /  14.5km/h 94% 0in /  0.0mm 0.00 W/m2
18:19 48.6 °F /  9.2 °C 46.9 °F /  8.3 °C 29.8in /  1010.4hPa WNW 6.9mph /  11.1km/h 10mph /  16.1km/h 94% 0in /  0.0mm 0.00 W/m2
18:24 48.6 °F /  9.2 °C 46.9 °F /  8.3 °C 29.8in /  1010.4hPa West 6mph /  9.7km/h 11mph /  17.7km/h 94% 0in /  0.0mm 0.00 W/m2
18:29 48.4 °F /  9.1 °C 46.8 °F /  8.2 °C 29.8in /  1010.4hPa WSW 4mph /  6.4km/h 10mph /  16.1km/h 94% 0in /  0.0mm 0.00 W/m2
18:34 48.4 °F /  9.1 °C 46.8 °F /  8.2 °C 29.8in /  1010.4hPa West 4mph /  6.4km/h 9mph /  14.5km/h 94% 0in /  0.0mm 0.00 W/m2
18:39 48.6 °F /  9.2 °C 46.9 °F /  8.3 °C 29.8in /  1010.4hPa West 4mph /  6.4km/h 10mph /  16.1km/h 94% 0in /  0.0mm 0.00 W/m2
18:44 48.6 °F /  9.2 °C 46.9 °F /  8.3 °C 29.8in /  1010.4hPa WNW 6.9mph /  11.1km/h 11mph /  17.7km/h 94% 0in /  0.0mm 0.00 W/m2
18:49 48.6 °F /  9.2 °C 46.9 °F /  8.3 °C 29.8in /  1010.4hPa West 8.1mph /  13.0km/h 9mph /  14.5km/h 94% 0in /  0.0mm 0.00 W/m2
18:54 48.6 °F /  9.2 °C 46.9 °F /  8.3 °C 29.8in /  1010.4hPa WNW 6mph /  9.7km/h 9mph /  14.5km/h 94% 0in /  0.0mm 0.00 W/m2
18:59 48.7 °F /  9.3 °C 47.1 °F /  8.4 °C 29.8in /  1010.4hPa WNW 2.9mph /  4.7km/h 7mph /  11.3km/h 94% 0in /  0.0mm 0.00 W/m2
19:04 48.6 °F /  9.2 °C 46.9 °F /  8.3 °C 29.8in /  1010.7hPa WNW 2mph /  3.2km/h 10mph /  16.1km/h 94% 0in /  0.0mm 0.00 W/m2
19:09 48.6 °F /  9.2 °C 46.9 °F /  8.3 °C 29.8in /  1010.7hPa WSW 4mph /  6.4km/h 10mph /  16.1km/h 94% 0in /  0.0mm 0.00 W/m2
19:14 48.7 °F /  9.3 °C 47.3 °F /  8.5 °C 29.8in /  1010.7hPa WSW 4.9mph /  7.9km/h 8mph /  12.9km/h 95% 0in /  0.0mm 0.00 W/m2
19:19 48.6 °F /  9.2 °C 47.1 °F /  8.4 °C 29.8in /  1010.7hPa West 4.9mph /  7.9km/h 9mph /  14.5km/h 95% 0in /  0.0mm 0.00 W/m2
19:24 48.6 °F /  9.2 °C 47.1 °F /  8.4 °C 29.8in /  1010.7hPa West 2.9mph /  4.7km/h 7mph /  11.3km/h 95% 0in /  0.0mm 0.00 W/m2
19:29 48.6 °F /  9.2 °C 47.1 °F /  8.4 °C 29.8in /  1010.7hPa West 4mph /  6.4km/h 8mph /  12.9km/h 95% 0in /  0.0mm 0.00 W/m2
19:34 48.6 °F /  9.2 °C 47.1 °F /  8.4 °C 29.8in /  1010.7hPa WNW 8.9mph /  14.3km/h 9mph /  14.5km/h 95% 0in /  0.0mm 0.00 W/m2
19:39 48.6 °F /  9.2 °C 47.1 °F /  8.4 °C 29.8in /  1010.7hPa WNW 0.9mph /  1.4km/h 9mph /  14.5km/h 95% 0in /  0.0mm 0.00 W/m2
19:44 48.6 °F /  9.2 °C 47.1 °F /  8.4 °C 29.8in /  1010.7hPa West 4mph /  6.4km/h 11mph /  17.7km/h 95% 0in /  0.0mm 0.00 W/m2
19:49 48.6 °F /  9.2 °C 47.1 °F /  8.4 °C 29.8in /  1010.7hPa WNW 2mph /  3.2km/h 7mph /  11.3km/h 95% 0in /  0.0mm 0.00 W/m2
19:54 48.6 °F /  9.2 °C 47.1 °F /  8.4 °C 29.8in /  1010.7hPa West 6.9mph /  11.1km/h 9mph /  14.5km/h 95% 0in /  0.0mm 0.00 W/m2
19:59 48.6 °F /  9.2 °C 47.1 °F /  8.4 °C 29.8in /  1010.7hPa West 6.9mph /  11.1km/h 12mph /  19.3km/h 95% 0in /  0.0mm 0.00 W/m2
20:04 48.4 °F /  9.1 °C 46.9 °F /  8.3 °C 29.8in /  1010.7hPa West 2.9mph /  4.7km/h 7mph /  11.3km/h 95% 0in /  0.0mm 0.00 W/m2
20:09 48.6 °F /  9.2 °C 47.1 °F /  8.4 °C 29.8in /  1010.7hPa West 4mph /  6.4km/h 10mph /  16.1km/h 95% 0in /  0.0mm 0.00 W/m2
20:14 48.4 °F /  9.1 °C 46.9 °F /  8.3 °C 29.8in /  1010.7hPa West 4mph /  6.4km/h 10mph /  16.1km/h 95% 0in /  0.0mm 0.00 W/m2
20:19 48.4 °F /  9.1 °C 46.9 °F /  8.3 °C 29.8in /  1010.7hPa WSW 4mph /  6.4km/h 9mph /  14.5km/h 95% 0in /  0.0mm 0.00 W/m2
20:24 48.4 °F /  9.1 °C 46.9 °F /  8.3 °C 29.8in /  1010.7hPa WNW 6.9mph /  11.1km/h 8mph /  12.9km/h 95% 0in /  0.0mm 0.00 W/m2
20:29 48.2 °F /  9.0 °C 46.8 °F /  8.2 °C 29.8in /  1010.7hPa WNW 4.9mph /  7.9km/h 7mph /  11.3km/h 95% 0in /  0.0mm 0.00 W/m2
20:34 48.2 °F /  9.0 °C 46.8 °F /  8.2 °C 29.8in /  1010.7hPa West 6mph /  9.7km/h 9mph /  14.5km/h 95% 0in /  0.0mm 0.00 W/m2
20:39 48.2 °F /  9.0 °C 46.8 °F /  8.2 °C 29.8in /  1010.7hPa West 4mph /  6.4km/h 8mph /  12.9km/h 95% 0in /  0.0mm 0.00 W/m2
20:44 48.2 °F /  9.0 °C 46.8 °F /  8.2 °C 29.8in /  1010.7hPa WNW 2mph /  3.2km/h 9mph /  14.5km/h 95% 0in /  0.0mm 0.00 W/m2
20:49 48.2 °F /  9.0 °C 46.8 °F /  8.2 °C 29.8in /  1010.7hPa WNW 4mph /  6.4km/h 10mph /  16.1km/h 95% 0in /  0.0mm 0.00 W/m2
20:54 48.2 °F /  9.0 °C 46.8 °F /  8.2 °C 29.8in /  1010.7hPa WNW 0.9mph /  1.4km/h 7mph /  11.3km/h 95% 0in /  0.0mm 0.00 W/m2
20:59 48.2 °F /  9.0 °C 46.8 °F /  8.2 °C 29.8in /  1010.7hPa West 9mph /  14.5km/h 9mph /  14.5km/h 95% 0in /  0.0mm 0.00 W/m2
21:04 48.2 °F /  9.0 °C 46.8 °F /  8.2 °C 29.8in /  1010.7hPa West 2mph /  3.2km/h 8mph /  12.9km/h 95% 0in /  0.0mm 0.00 W/m2
21:09 48.2 °F /  9.0 °C 46.8 °F /  8.2 °C 29.8in /  1010.7hPa West 4.9mph /  7.9km/h 6mph /  9.7km/h 95% 0in /  0.0mm 0.00 W/m2
21:14 48.2 °F /  9.0 °C 46.8 °F /  8.2 °C 29.8in /  1010.4hPa West 4.9mph /  7.9km/h 5mph /  8.0km/h 95% 0.01in /  0.3mm 0.00 W/m2
21:19 48.2 °F /  9.0 °C 46.8 °F /  8.2 °C 29.8in /  1010.7hPa West 6mph /  9.7km/h 7mph /  11.3km/h 95% 0.01in /  0.3mm 0.00 W/m2
21:24 48.2 °F /  9.0 °C 46.8 °F /  8.2 °C 29.8in /  1010.4hPa WSW 2.9mph /  4.7km/h 6mph /  9.7km/h 95% 0.01in /  0.3mm 0.00 W/m2
21:29 48.4 °F /  9.1 °C 46.9 °F /  8.3 °C 29.8in /  1010.4hPa West 4mph /  6.4km/h 9mph /  14.5km/h 95% 0.01in /  0.3mm 0.00 W/m2
21:34 48.6 °F /  9.2 °C 47.5 °F /  8.6 °C 29.8in /  1010.4hPa West 10mph /  16.1km/h 10mph /  16.1km/h 96% 0.01in /  0.3mm 0.00 W/m2
21:39 48.6 °F /  9.2 °C 47.5 °F /  8.6 °C 29.8in /  1010.4hPa WNW 6mph /  9.7km/h 7mph /  11.3km/h 96% 0.01in /  0.3mm 0.00 W/m2
21:44 48.9 °F /  9.4 °C 47.8 °F /  8.8 °C 29.8in /  1010.4hPa West 4mph /  6.4km/h 8mph /  12.9km/h 96% 0.01in /  0.3mm 0.00 W/m2
21:49 49.1 °F /  9.5 °C 48 °F /  8.9 °C 29.8in /  1010.4hPa WSW 4.9mph /  7.9km/h 9mph /  14.5km/h 96% 0.01in /  0.3mm 0.00 W/m2
21:54 49.3 °F /  9.6 °C 48.2 °F /  9.0 °C 29.8in /  1010.0hPa West 4.9mph /  7.9km/h 9mph /  14.5km/h 96% 0.02in /  0.5mm 0.00 W/m2
21:59 49.5 °F /  9.7 °C 48.4 °F /  9.1 °C 29.8in /  1010.0hPa West 4.9mph /  7.9km/h 8mph /  12.9km/h 96% 0.02in /  0.5mm 0.00 W/m2
22:04 49.6 °F /  9.8 °C 48.6 °F /  9.2 °C 29.8in /  1010.0hPa WSW 6mph /  9.7km/h 8mph /  12.9km/h 96% 0.02in /  0.5mm 0.00 W/m2
22:09 49.8 °F /  9.9 °C 48.7 °F /  9.3 °C 29.8in /  1010.0hPa WSW 8.1mph /  13.0km/h 13mph /  20.9km/h 96% 0.01in /  0.3mm 0.00 W/m2
22:14 50 °F /  10.0 °C 48.9 °F /  9.4 °C 29.8in /  1010.0hPa WSW 8.1mph /  13.0km/h 8mph /  12.9km/h 96% 0.01in /  0.3mm 0.00 W/m2
22:19 50 °F /  10.0 °C 48.9 °F /  9.4 °C 29.8in /  1010.0hPa WSW 6.9mph /  11.1km/h 12mph /  19.3km/h 96% 0.01in /  0.3mm 0.00 W/m2
22:24 50.2 °F /  10.1 °C 49.1 °F /  9.5 °C 29.8in /  1010.0hPa WSW 15mph /  24.1km/h 15mph /  24.1km/h 96% 0.01in /  0.3mm 0.00 W/m2
22:29 50.2 °F /  10.1 °C 49.1 °F /  9.5 °C 29.8in /  1010.0hPa WSW 8.9mph /  14.3km/h 14mph /  22.5km/h 96% 0.02in /  0.5mm 0.00 W/m2
22:34 50.2 °F /  10.1 °C 49.1 °F /  9.5 °C 29.8in /  1010.0hPa West 8.9mph /  14.3km/h 9mph /  14.5km/h 96% 0.02in /  0.5mm 0.00 W/m2
22:39 50.4 °F /  10.2 °C 48.9 °F /  9.4 °C 29.8in /  1010.0hPa WSW 6mph /  9.7km/h 14mph /  22.5km/h 95% 0.02in /  0.5mm 0.00 W/m2
22:44 50.4 °F /  10.2 °C 48.9 °F /  9.4 °C 29.8in /  1010.0hPa WSW 6mph /  9.7km/h 12mph /  19.3km/h 95% 0.02in /  0.5mm 0.00 W/m2
22:49 50.4 °F /  10.2 °C 48.9 °F /  9.4 °C 29.8in /  1010.0hPa WSW 6mph /  9.7km/h 11mph /  17.7km/h 95% 0.02in /  0.5mm 0.00 W/m2
22:54 50.5 °F /  10.3 °C 49.1 °F /  9.5 °C 29.8in /  1010.0hPa WSW 4.9mph /  7.9km/h 16mph /  25.7km/h 95% 0.01in /  0.3mm 0.00 W/m2
22:59 50.5 °F /  10.3 °C 49.1 °F /  9.5 °C 29.8in /  1010.0hPa WSW 10.1mph /  16.3km/h 10mph /  16.1km/h 95% 0.01in /  0.3mm 0.00 W/m2
23:04 50.5 °F /  10.3 °C 49.1 °F /  9.5 °C 29.8in /  1010.0hPa West 4mph /  6.4km/h 11mph /  17.7km/h 95% 0.01in /  0.3mm 0.00 W/m2
23:09 50.5 °F /  10.3 °C 49.1 °F /  9.5 °C 29.8in /  1010.0hPa West 6.9mph /  11.1km/h 12mph /  19.3km/h 95% 0.01in /  0.3mm 0.00 W/m2
23:14 50.7 °F /  10.4 °C 49.3 °F /  9.6 °C 29.8in /  1009.7hPa West 4mph /  6.4km/h 11mph /  17.7km/h 95% 0.01in /  0.3mm 0.00 W/m2
23:19 50.7 °F /  10.4 °C 49.3 °F /  9.6 °C 29.8in /  1009.7hPa WSW 13mph /  20.9km/h 13mph /  20.9km/h 95% 0.01in /  0.3mm 0.00 W/m2
23:24 50.9 °F /  10.5 °C 49.5 °F /  9.7 °C 29.8in /  1009.7hPa WSW 4mph /  6.4km/h 11mph /  17.7km/h 95% 0.01in /  0.3mm 0.00 W/m2
23:29 50.9 °F /  10.5 °C 49.3 °F /  9.6 °C 29.8in /  1009.7hPa WSW 14.1mph /  22.7km/h 14mph /  22.5km/h 94% 0.01in /  0.3mm 0.00 W/m2
23:34 50.9 °F /  10.5 °C 49.3 °F /  9.6 °C 29.8in /  1009.7hPa West 6.9mph /  11.1km/h 11mph /  17.7km/h 94% 0.02in /  0.5mm 0.00 W/m2
23:39 50.7 °F /  10.4 °C 49.1 °F /  9.5 °C 29.8in /  1009.7hPa WNW 6.9mph /  11.1km/h 15mph /  24.1km/h 94% 0.02in /  0.5mm 0.00 W/m2
23:42 50.9 °F /  10.5 °C 49.3 °F /  9.6 °C 29.8in /  1009.7hPa WSW 2.9mph /  4.7km/h 10mph /  16.1km/h 94% 0.02in /  0.5mm 0.00 W/m2
23:49 50.7 °F /  10.4 °C 49.1 °F /  9.5 °C 29.8in /  1009.7hPa SW 6.9mph /  11.1km/h 11mph /  17.7km/h 94% 0.02in /  0.5mm 0.00 W/m2
23:54 50.7 °F /  10.4 °C 49.1 °F /  9.5 °C 29.8in /  1009.7hPa WSW 11mph /  17.7km/h 17mph /  27.4km/h 94% 0.02in /  0.5mm 0.00 W/m2
23:59 50.7 °F /  10.4 °C 49.1 °F /  9.5 °C 29.8in /  1009.7hPa SW 6.9mph /  11.1km/h 11mph /  17.7km/h 94% 0.02in /  0.5mm 0.00 W/m2